createdAt,value
2018-07-23T00:00:16.156Z,26.36
2018-07-23T00:05:19.846Z,26.35
2018-07-23T00:10:24.132Z,26.36
2018-07-23T00:15:28.478Z,26.35
2018-07-23T00:20:32.734Z,26.35
2018-07-23T00:25:37.039Z,26.34
2018-07-23T00:30:41.332Z,26.36
2018-07-23T00:35:45.724Z,26.35
2018-07-23T00:40:49.850Z,26.34
2018-07-23T00:45:53.887Z,26.32
2018-07-23T00:50:58.025Z,26.32
2018-07-23T00:56:02.080Z,26.33
2018-07-23T01:01:06.365Z,26.33
2018-07-23T01:06:10.309Z,26.33
2018-07-23T01:11:14.599Z,26.34
2018-07-23T01:16:18.552Z,26.32
2018-07-23T01:21:22.568Z,26.34
2018-07-23T01:26:27.072Z,26.30
2018-07-23T01:31:31.752Z,26.31
2018-07-23T01:36:35.874Z,26.32
2018-07-23T01:41:40.266Z,26.30
2018-07-23T01:46:44.091Z,26.29
2018-07-23T01:51:48.090Z,26.31
2018-07-23T01:56:51.909Z,26.30
2018-07-23T02:01:57.607Z,26.30
2018-07-23T02:07:01.649Z,26.30
2018-07-23T02:12:06.411Z,26.29
2018-07-23T02:17:10.948Z,26.28
2018-07-23T02:22:15.471Z,26.26
2018-07-23T02:27:19.688Z,26.28
2018-07-23T02:32:23.424Z,26.28
2018-07-23T02:37:27.268Z,26.26
2018-07-23T02:42:31.311Z,26.28
2018-07-23T02:47:35.055Z,26.24
2018-07-23T02:52:38.967Z,26.23
2018-07-23T02:57:42.816Z,26.18
2018-07-23T03:02:46.808Z,26.13
2018-07-23T03:07:50.732Z,25.88
2018-07-23T03:12:55.429Z,25.73
2018-07-23T03:17:59.328Z,25.62
2018-07-23T03:23:03.348Z,25.55
2018-07-23T03:28:07.340Z,25.50
2018-07-23T03:33:11.314Z,25.43
2018-07-23T03:38:15.149Z,25.35
2018-07-23T03:43:19.070Z,25.31
2018-07-23T03:48:22.838Z,25.17
2018-07-23T03:53:26.617Z,25.19
2018-07-23T03:58:30.295Z,25.21
2018-07-23T04:03:33.903Z,25.10
2018-07-23T04:08:38.017Z,24.04
2018-07-23T04:13:41.863Z,23.05
2018-07-23T04:18:45.623Z,22.76
2018-07-23T04:23:49.568Z,22.68
2018-07-23T04:28:53.370Z,22.47
2018-07-23T04:33:57.105Z,22.49
2018-07-23T04:39:00.993Z,22.40
2018-07-23T04:44:04.756Z,22.28
2018-07-23T04:49:08.634Z,22.31
2018-07-23T04:54:12.463Z,22.22
2018-07-23T04:59:16.982Z,22.16
2018-07-23T05:04:20.723Z,22.18
2018-07-23T05:09:24.650Z,22.15
2018-07-23T05:14:28.540Z,22.20
2018-07-23T05:19:32.734Z,22.27
2018-07-23T05:24:36.614Z,22.30
2018-07-23T05:29:40.409Z,22.33
2018-07-23T05:34:44.234Z,22.41
2018-07-23T05:39:48.075Z,22.43
2018-07-23T05:44:51.842Z,22.46
2018-07-23T05:49:55.644Z,22.51
2018-07-23T05:54:59.415Z,22.53
2018-07-23T06:00:06.469Z,22.56
2018-07-23T06:05:10.262Z,22.59
2018-07-23T06:19:48.062Z,22.67
2018-07-23T06:24:51.745Z,22.73
2018-07-23T06:29:55.460Z,22.78
2018-07-23T06:34:59.150Z,22.81
2018-07-23T06:40:06.979Z,22.85
2018-07-23T06:45:10.707Z,22.93
2018-07-23T06:50:14.411Z,22.95
2018-07-23T06:55:18.180Z,23.01
2018-07-23T07:00:21.942Z,23.02
2018-07-23T07:05:26.607Z,23.12
2018-07-23T07:10:30.433Z,23.21
2018-07-23T07:15:34.260Z,23.22
2018-07-23T07:20:38.922Z,23.68
2018-07-23T07:25:43.087Z,23.94
2018-07-23T07:30:46.817Z,24.08
2018-07-23T07:35:50.494Z,24.18
2018-07-23T07:41:00.786Z,24.25
2018-07-23T07:46:05.638Z,24.32
2018-07-23T07:51:09.409Z,24.39
2018-07-23T07:56:13.131Z,24.43
2018-07-23T08:01:16.887Z,24.50
2018-07-23T08:06:20.570Z,24.53
2018-07-23T08:11:24.274Z,24.58
2018-07-23T08:16:27.975Z,24.62
2018-07-23T08:21:31.713Z,24.66
2018-07-23T08:26:35.345Z,24.69
2018-07-23T08:31:39.131Z,24.73
2018-07-23T08:36:42.831Z,24.77
2018-07-23T08:41:46.600Z,24.79
2018-07-23T08:46:50.361Z,24.83
2018-07-23T08:51:54.147Z,24.88
2018-07-23T08:56:57.783Z,24.94
2018-07-23T09:02:01.438Z,24.98
2018-07-23T09:07:05.183Z,24.99
2018-07-23T09:12:09.466Z,25.01
2018-07-23T09:17:13.236Z,25.03
2018-07-23T09:22:16.889Z,25.05
2018-07-23T09:27:20.526Z,25.09
2018-07-23T09:32:24.190Z,25.12
2018-07-23T09:37:28.158Z,25.14
2018-07-23T09:42:32.002Z,25.17
2018-07-23T09:47:35.786Z,25.18
2018-07-23T09:52:39.531Z,25.21
2018-07-23T09:57:43.273Z,25.22
2018-07-23T10:02:46.974Z,25.26
2018-07-23T10:07:50.652Z,25.22
2018-07-23T10:12:54.462Z,25.30
2018-07-23T10:17:58.122Z,25.32
2018-07-23T10:23:01.778Z,25.33
2018-07-23T10:28:05.747Z,25.36
2018-07-23T10:33:09.415Z,25.38
2018-07-23T10:38:13.459Z,25.40
2018-07-23T10:43:17.185Z,25.41
2018-07-23T10:48:20.847Z,25.45
2018-07-23T10:53:24.922Z,25.46
2018-07-23T10:58:30.305Z,25.48
2018-07-23T11:03:34.075Z,25.49
2018-07-23T11:08:37.758Z,25.50
2018-07-23T11:13:41.511Z,25.55
2018-07-23T11:18:45.223Z,25.53
2018-07-23T11:23:48.950Z,25.54
2018-07-23T11:28:52.651Z,25.55
2018-07-23T11:33:56.424Z,25.60
2018-07-23T11:39:00.142Z,25.60
2018-07-23T11:44:04.157Z,25.60
2018-07-23T11:49:07.944Z,25.63
2018-07-23T11:54:11.878Z,25.64
2018-07-23T11:59:15.503Z,25.65
2018-07-23T12:04:19.227Z,25.70
2018-07-23T12:09:22.813Z,25.71
2018-07-23T12:14:26.435Z,25.71
2018-07-23T12:19:30.229Z,25.69
2018-07-23T12:24:33.918Z,25.74
2018-07-23T12:29:37.564Z,25.74
2018-07-23T12:34:42.212Z,25.73
2018-07-23T12:39:45.999Z,25.79
2018-07-23T12:44:49.717Z,25.83
2018-07-23T12:49:53.415Z,25.82
2018-07-23T12:54:57.166Z,25.80
2018-07-23T13:00:02.105Z,25.83
2018-07-23T13:05:07.209Z,25.81
2018-07-23T13:10:10.869Z,25.84
2018-07-23T13:15:14.613Z,25.92
2018-07-23T13:20:18.339Z,25.95
2018-07-23T13:25:22.037Z,25.99
2018-07-23T13:30:25.830Z,25.92
2018-07-23T13:35:29.599Z,25.89
2018-07-23T13:40:33.268Z,25.88
2018-07-23T13:45:37.017Z,25.92
2018-07-23T13:50:40.782Z,25.94
2018-07-23T13:55:44.482Z,25.94
2018-07-23T14:00:48.297Z,25.93
2018-07-23T14:05:51.974Z,25.92
2018-07-23T14:10:55.758Z,26.01
2018-07-23T14:15:59.418Z,25.98
2018-07-23T14:21:03.091Z,26.01
2018-07-23T14:26:06.807Z,26.00
2018-07-23T14:31:10.507Z,26.04
2018-07-23T14:36:14.645Z,26.05
2018-07-23T14:41:18.514Z,26.05
2018-07-23T14:46:22.547Z,26.10
2018-07-23T14:51:26.303Z,26.10
2018-07-23T14:56:30.333Z,26.11
2018-07-23T15:01:34.503Z,26.19
2018-07-23T15:06:38.234Z,26.25
2018-07-23T15:11:41.977Z,26.29
2018-07-23T15:16:45.601Z,26.45
2018-07-23T15:21:49.359Z,26.59
2018-07-23T15:26:53.183Z,26.60
2018-07-23T15:31:56.954Z,26.68
2018-07-23T15:37:00.718Z,26.69
2018-07-23T15:42:04.475Z,26.76
2018-07-23T15:47:08.667Z,26.87
2018-07-23T15:52:12.516Z,26.92
2018-07-23T15:57:16.186Z,26.88
2018-07-23T16:02:19.810Z,27.07
2018-07-23T16:07:23.561Z,27.13
2018-07-23T16:12:27.226Z,27.12
2018-07-23T16:17:30.916Z,27.20
2018-07-23T16:22:34.812Z,27.27
2018-07-23T16:27:38.628Z,27.28
2018-07-23T16:32:42.493Z,27.23
2018-07-23T16:37:46.311Z,27.15
2018-07-23T16:42:50.010Z,27.17
2018-07-23T16:47:53.864Z,27.19
2018-07-23T16:52:57.611Z,27.19
2018-07-23T16:58:01.482Z,27.27
2018-07-23T17:03:05.146Z,27.23
2018-07-23T17:08:08.942Z,27.39
2018-07-23T17:13:12.861Z,27.35
2018-07-23T17:18:16.730Z,27.22
2018-07-23T17:23:20.575Z,27.36
2018-07-23T17:28:24.301Z,27.41
2018-07-23T17:33:28.004Z,27.49
2018-07-23T17:38:31.711Z,27.47
2018-07-23T17:43:39.986Z,27.47
2018-07-23T17:48:43.713Z,27.46
2018-07-23T17:53:47.533Z,27.52
2018-07-23T17:58:51.987Z,27.48
2018-07-23T18:03:56.128Z,27.47
2018-07-23T18:09:01.249Z,27.48
2018-07-23T18:14:05.346Z,27.46
2018-07-23T18:19:09.089Z,27.48
2018-07-23T18:24:12.757Z,27.60
2018-07-23T18:29:16.582Z,27.49
2018-07-23T18:34:20.246Z,27.42
2018-07-23T18:39:23.882Z,27.39
2018-07-23T18:44:27.569Z,27.46
2018-07-23T18:49:43.515Z,27.47
2018-07-23T18:54:48.583Z,27.42
2018-07-23T18:59:52.302Z,27.34
2018-07-23T19:04:56.054Z,27.40
2018-07-23T19:09:59.771Z,27.43
2018-07-23T19:15:05.775Z,27.35
2018-07-23T19:20:09.474Z,27.44
2018-07-23T19:25:13.184Z,27.34
2018-07-23T19:30:16.920Z,27.24
2018-07-23T19:35:20.644Z,27.25
2018-07-23T19:40:24.595Z,27.18
2018-07-23T19:45:28.300Z,27.21
2018-07-23T19:50:31.993Z,27.16
2018-07-23T19:55:35.687Z,27.10
2018-07-23T20:00:39.389Z,27.14
2018-07-23T20:05:43.065Z,27.04
2018-07-23T20:10:46.759Z,27.01
2018-07-23T20:15:50.448Z,26.86
2018-07-23T20:20:54.193Z,26.84
2018-07-23T20:25:57.849Z,26.81
2018-07-23T20:31:01.506Z,26.79
2018-07-23T20:36:05.652Z,26.54
2018-07-23T20:41:09.361Z,26.49
2018-07-23T20:46:12.994Z,26.58
2018-07-23T20:51:16.722Z,26.58
2018-07-23T20:56:20.527Z,26.51
2018-07-23T21:01:24.339Z,26.32
2018-07-23T21:06:28.491Z,26.28
2018-07-23T21:11:32.425Z,26.21
2018-07-23T21:16:36.255Z,26.18
2018-07-23T21:21:39.931Z,26.14
2018-07-23T21:26:43.603Z,26.08
2018-07-23T21:31:47.318Z,25.99
2018-07-23T21:36:51.541Z,26.02
2018-07-23T21:41:55.279Z,26.01
2018-07-23T21:46:59.577Z,25.94
2018-07-23T21:52:03.681Z,25.94
2018-07-23T21:57:07.892Z,25.95
2018-07-23T22:02:11.878Z,25.96
2018-07-23T22:07:15.590Z,25.76
2018-07-23T22:12:19.273Z,25.71
2018-07-23T22:17:22.999Z,25.63
2018-07-23T22:22:26.734Z,25.57
2018-07-23T22:27:30.454Z,25.58
2018-07-23T22:32:34.110Z,25.58
2018-07-23T22:37:37.723Z,25.51
2018-07-23T22:42:41.398Z,25.46
2018-07-23T22:47:45.065Z,25.37
2018-07-23T22:52:48.860Z,25.42
2018-07-23T22:57:52.534Z,25.43
2018-07-23T23:02:56.207Z,25.40
2018-07-23T23:07:59.996Z,25.36
2018-07-23T23:13:03.707Z,25.37
2018-07-23T23:18:07.479Z,25.25
2018-07-23T23:23:11.329Z,25.21
2018-07-23T23:28:15.044Z,25.17
2018-07-23T23:33:18.746Z,25.24
2018-07-23T23:38:22.351Z,25.25
2018-07-23T23:43:26.083Z,25.16
2018-07-23T23:48:29.826Z,25.13
2018-07-23T23:53:33.470Z,25.06
2018-07-23T23:58:37.218Z,24.98
